createdAt,value
2018-03-25T00:00:30.142Z,2.80
2018-03-25T00:02:58.396Z,2.80
2018-03-25T00:05:25.901Z,2.90
2018-03-25T00:07:53.467Z,2.80
2018-03-25T00:10:21.010Z,2.80
2018-03-25T00:12:48.529Z,2.80
2018-03-25T00:15:16.052Z,2.80
2018-03-25T00:17:43.572Z,2.70
2018-03-25T00:20:11.083Z,2.70
2018-03-25T00:22:38.588Z,2.70
2018-03-25T00:25:06.150Z,2.80
2018-03-25T00:27:33.802Z,2.80
2018-03-25T00:30:01.344Z,2.80
2018-03-25T00:32:28.890Z,2.70
2018-03-25T00:34:57.179Z,2.70
2018-03-25T00:37:25.449Z,2.60
2018-03-25T00:39:52.955Z,2.50
2018-03-25T00:42:20.533Z,2.60
2018-03-25T00:44:48.019Z,2.60
2018-03-25T00:47:15.572Z,2.60
2018-03-25T00:49:43.062Z,2.60
2018-03-25T00:52:10.577Z,2.60
2018-03-25T00:54:38.885Z,2.60
2018-03-25T00:57:06.395Z,2.50
2018-03-25T00:59:33.896Z,2.60
2018-03-25T01:02:02.159Z,2.50
2018-03-25T01:04:29.677Z,2.40
2018-03-25T01:06:57.175Z,2.40
2018-03-25T01:09:25.489Z,2.50
2018-03-25T01:11:52.991Z,2.40
2018-03-25T01:14:20.520Z,2.50
2018-03-25T01:16:48.467Z,2.50
2018-03-25T01:19:16.746Z,2.50
2018-03-25T01:21:44.260Z,2.40
2018-03-25T01:24:11.773Z,2.50
2018-03-25T01:26:39.261Z,2.50
2018-03-25T01:29:06.764Z,2.30
2018-03-25T01:31:34.285Z,2.30
2018-03-25T01:34:01.796Z,2.40
2018-03-25T01:36:30.079Z,2.40
2018-03-25T01:38:57.590Z,2.30
2018-03-25T01:41:25.537Z,2.30
2018-03-25T01:43:53.031Z,2.40
2018-03-25T01:46:20.553Z,2.40
2018-03-25T01:48:48.052Z,2.40
2018-03-25T01:51:15.546Z,2.40
2018-03-25T01:53:45.478Z,2.40
2018-03-25T01:56:12.972Z,2.30
2018-03-25T01:58:40.496Z,2.30
2018-03-25T02:01:08.032Z,2.30
2018-03-25T02:03:36.313Z,2.30
2018-03-25T02:06:04.575Z,2.30
2018-03-25T02:08:32.143Z,2.30
2018-03-25T02:10:59.637Z,2.30
2018-03-25T02:13:27.141Z,2.30
2018-03-25T02:15:54.662Z,2.30
2018-03-25T02:18:22.929Z,2.20
2018-03-25T02:20:50.464Z,2.10
2018-03-25T02:23:18.800Z,2.20
2018-03-25T02:25:46.322Z,2.10
2018-03-25T02:28:13.824Z,2.20
2018-03-25T02:30:41.359Z,2.20
2018-03-25T02:33:08.881Z,2.20
2018-03-25T02:35:37.384Z,2.10
2018-03-25T02:38:04.920Z,2.00
2018-03-25T02:40:33.219Z,2.00
2018-03-25T02:43:00.768Z,2.00
2018-03-25T02:45:29.025Z,2.00
2018-03-25T02:47:56.833Z,1.90
2018-03-25T02:50:24.339Z,1.90
2018-03-25T02:52:51.870Z,2.00
2018-03-25T02:55:19.523Z,1.90
2018-03-25T02:57:47.091Z,1.90
2018-03-25T03:00:14.629Z,2.00
2018-03-25T03:02:42.129Z,1.90
2018-03-25T03:05:09.664Z,1.90
2018-03-25T03:07:37.182Z,1.90
2018-03-25T03:10:05.459Z,1.90
2018-03-25T03:12:33.734Z,2.00
2018-03-25T03:15:01.268Z,1.90
2018-03-25T03:17:28.805Z,2.00
2018-03-25T03:19:56.330Z,1.90
2018-03-25T03:22:24.050Z,1.90
2018-03-25T03:24:51.552Z,1.90
2018-03-25T03:27:19.079Z,2.00
2018-03-25T03:29:46.578Z,2.00
2018-03-25T03:32:14.094Z,2.00
2018-03-25T03:34:41.678Z,2.00
2018-03-25T03:37:09.200Z,1.90
2018-03-25T03:39:36.693Z,1.80
2018-03-25T03:42:04.187Z,1.90
2018-03-25T03:44:31.715Z,1.90
2018-03-25T03:46:59.445Z,2.00
2018-03-25T03:49:26.982Z,2.00
2018-03-25T03:51:54.486Z,1.90
2018-03-25T03:54:22.271Z,1.80
2018-03-25T03:56:50.572Z,1.80
2018-03-25T03:59:18.092Z,1.70
2018-03-25T04:01:46.527Z,1.70
2018-03-25T04:04:14.033Z,1.70
2018-03-25T04:06:41.546Z,1.80
2018-03-25T04:09:09.155Z,1.80
2018-03-25T04:11:36.671Z,1.70
2018-03-25T04:14:04.176Z,1.70
2018-03-25T04:16:32.472Z,1.60
2018-03-25T04:19:00.719Z,1.70
2018-03-25T04:21:28.243Z,1.50
2018-03-25T04:23:55.746Z,1.70
2018-03-25T04:26:23.264Z,1.60
2018-03-25T04:28:50.767Z,1.60
2018-03-25T04:31:18.283Z,1.70
2018-03-25T04:33:46.792Z,1.70
2018-03-25T04:36:15.139Z,1.70
2018-03-25T04:38:42.678Z,1.80
2018-03-25T04:41:10.944Z,1.70
2018-03-25T04:43:38.499Z,1.60
2018-03-25T04:46:06.759Z,1.80
2018-03-25T04:48:34.271Z,1.70
2018-03-25T04:51:01.829Z,1.80
2018-03-25T04:53:29.343Z,1.70
2018-03-25T04:55:56.891Z,1.70
2018-03-25T04:58:24.391Z,1.80
2018-03-25T05:00:52.740Z,1.80
2018-03-25T05:03:20.236Z,1.80
2018-03-25T05:05:47.752Z,1.70
2018-03-25T05:08:15.244Z,1.60
2018-03-25T05:10:42.781Z,1.60
2018-03-25T05:13:10.317Z,1.60
2018-03-25T05:15:37.832Z,1.70
2018-03-25T05:18:05.346Z,1.60
2018-03-25T05:20:32.831Z,1.70
2018-03-25T05:23:01.110Z,1.70
2018-03-25T05:25:29.380Z,1.70
2018-03-25T05:27:56.946Z,1.60
2018-03-25T05:30:25.212Z,1.80
2018-03-25T05:32:53.484Z,1.80
2018-03-25T05:35:20.984Z,1.70
2018-03-25T05:37:48.499Z,1.90
2018-03-25T05:40:16.005Z,1.90
2018-03-25T05:42:43.512Z,1.90
2018-03-25T05:45:11.244Z,1.90
2018-03-25T05:47:38.801Z,2.00
2018-03-25T05:50:06.318Z,2.10
2018-03-25T05:52:34.583Z,2.30
2018-03-25T05:55:02.082Z,2.30
2018-03-25T05:57:29.594Z,2.40
2018-03-25T05:59:57.105Z,2.30
2018-03-25T06:02:25.385Z,2.50
2018-03-25T06:04:52.952Z,2.40
2018-03-25T06:07:21.535Z,2.70
2018-03-25T06:09:49.925Z,2.60
2018-03-25T06:12:17.427Z,2.80
2018-03-25T06:14:45.709Z,3.00
2018-03-25T06:17:13.407Z,2.90
2018-03-25T06:19:40.929Z,3.10
2018-03-25T06:22:08.451Z,3.10
2018-03-25T06:24:35.966Z,3.20
2018-03-25T06:27:04.228Z,3.30
2018-03-25T06:29:32.336Z,3.20
2018-03-25T06:31:59.843Z,3.40
2018-03-25T06:34:27.372Z,3.50
2018-03-25T06:36:54.972Z,3.60
2018-03-25T06:39:22.493Z,3.60
2018-03-25T06:41:49.996Z,3.60
2018-03-25T06:44:17.483Z,3.60
2018-03-25T06:46:45.005Z,3.60
2018-03-25T06:49:12.520Z,3.60
2018-03-25T06:51:40.030Z,3.70
2018-03-25T06:54:07.540Z,3.80
2018-03-25T06:56:35.063Z,3.90
2018-03-25T06:59:03.398Z,4.00
2018-03-25T07:01:30.916Z,3.90
2018-03-25T07:03:59.205Z,4.20
2018-03-25T07:06:26.696Z,4.10
2018-03-25T07:08:54.215Z,4.30
2018-03-25T07:11:22.472Z,4.50
2018-03-25T07:13:50.768Z,4.50
2018-03-25T07:16:18.259Z,4.40
2018-03-25T07:18:45.775Z,4.60
2018-03-25T07:21:14.040Z,4.80
2018-03-25T07:23:41.534Z,4.70
2018-03-25T07:26:09.070Z,4.90
2018-03-25T07:28:36.591Z,4.90
2018-03-25T07:31:04.116Z,4.90
2018-03-25T07:33:31.630Z,5.00
2018-03-25T07:35:59.152Z,5.00
2018-03-25T07:38:26.672Z,5.00
2018-03-25T07:40:54.954Z,5.20
2018-03-25T07:43:22.459Z,5.10
2018-03-25T07:45:49.961Z,5.20
2018-03-25T07:48:18.240Z,5.30
2018-03-25T07:50:45.763Z,5.30
2018-03-25T07:53:13.319Z,5.30
2018-03-25T07:55:40.834Z,5.40
2018-03-25T07:58:08.379Z,5.40
2018-03-25T08:00:36.648Z,5.60
2018-03-25T08:03:04.940Z,5.70
2018-03-25T08:05:33.260Z,5.70
2018-03-25T08:08:00.756Z,5.60
2018-03-25T08:10:28.284Z,5.70
2018-03-25T08:12:55.801Z,5.80
2018-03-25T08:15:24.091Z,5.90
2018-03-25T08:17:51.603Z,5.80
2018-03-25T08:20:19.105Z,5.90
2018-03-25T08:22:46.619Z,6.10
2018-03-25T08:25:14.129Z,6.10
2018-03-25T08:27:41.671Z,6.20
2018-03-25T08:30:09.941Z,6.10
2018-03-25T08:32:38.230Z,6.20
2018-03-25T08:35:06.534Z,6.30
2018-03-25T08:37:34.033Z,6.20
2018-03-25T08:40:01.544Z,6.30
2018-03-25T08:42:29.217Z,6.30
2018-03-25T08:44:56.731Z,6.50
2018-03-25T08:47:24.249Z,6.60
2018-03-25T08:49:51.768Z,6.80
2018-03-25T08:52:20.040Z,6.80
2018-03-25T08:54:47.552Z,6.70
2018-03-25T08:57:15.081Z,6.90
2018-03-25T08:59:42.653Z,6.90
2018-03-25T09:02:10.170Z,6.90
2018-03-25T09:04:37.701Z,6.90
2018-03-25T09:07:05.241Z,6.80
2018-03-25T09:09:32.759Z,6.90
2018-03-25T09:12:01.023Z,7.00
2018-03-25T09:14:28.574Z,6.90
2018-03-25T09:16:56.098Z,7.10
2018-03-25T09:19:23.636Z,7.30
2018-03-25T09:21:51.878Z,7.30
2018-03-25T09:24:19.414Z,7.30
2018-03-25T09:26:47.047Z,7.40
2018-03-25T09:29:14.550Z,7.60
2018-03-25T09:31:42.076Z,7.60
2018-03-25T09:34:09.591Z,7.60
2018-03-25T09:36:37.892Z,7.60
2018-03-25T09:39:05.407Z,7.50
2018-03-25T09:41:32.954Z,7.60
2018-03-25T09:44:00.484Z,7.60
2018-03-25T09:46:28.034Z,7.80
2018-03-25T09:48:56.485Z,7.90
2018-03-25T09:51:24.015Z,7.80
2018-03-25T09:53:51.557Z,7.90
2018-03-25T09:56:19.075Z,7.90
2018-03-25T09:58:47.376Z,7.90
2018-03-25T10:01:14.893Z,7.80
2018-03-25T10:03:42.424Z,8.00
2018-03-25T10:06:09.934Z,8.10
2018-03-25T10:08:37.492Z,8.10
2018-03-25T10:11:05.780Z,8.20
2018-03-25T10:13:34.840Z,8.10
2018-03-25T10:16:02.695Z,8.30
2018-03-25T10:18:30.200Z,8.30
2018-03-25T10:20:58.016Z,8.30
2018-03-25T10:23:26.668Z,8.40
2018-03-25T10:25:55.862Z,8.40
2018-03-25T10:28:23.434Z,8.60
2018-03-25T10:30:50.944Z,8.70
2018-03-25T10:33:18.464Z,8.90
2018-03-25T10:35:46.839Z,8.90
2018-03-25T10:38:14.370Z,9.10
2018-03-25T10:40:41.891Z,9.10
2018-03-25T10:43:09.450Z,9.10
2018-03-25T10:45:37.021Z,9.10
2018-03-25T10:48:05.303Z,9.00
2018-03-25T10:50:33.672Z,8.90
2018-03-25T10:53:01.184Z,9.10
2018-03-25T10:55:28.724Z,9.30
2018-03-25T10:57:56.247Z,9.50
2018-03-25T11:00:23.774Z,9.60
2018-03-25T11:02:51.295Z,9.70
2018-03-25T11:05:19.613Z,9.80
2018-03-25T11:07:47.175Z,9.60
2018-03-25T11:10:14.752Z,9.80
2018-03-25T11:12:42.293Z,9.80
2018-03-25T11:15:09.895Z,9.70
2018-03-25T11:17:37.764Z,9.70
2018-03-25T11:20:06.044Z,9.70
2018-03-25T11:22:34.383Z,9.70
2018-03-25T11:25:01.925Z,9.60
2018-03-25T11:27:29.446Z,9.80
2018-03-25T11:29:56.948Z,9.80
2018-03-25T11:32:24.443Z,9.70
2018-03-25T11:34:51.977Z,9.50
2018-03-25T11:37:19.491Z,9.60
2018-03-25T11:39:47.802Z,9.30
2018-03-25T11:42:15.343Z,9.20
2018-03-25T11:44:42.924Z,9.30
2018-03-25T11:47:10.494Z,9.40
2018-03-25T11:49:37.997Z,9.50
2018-03-25T11:52:05.519Z,9.60
2018-03-25T11:54:33.036Z,9.70
2018-03-25T11:57:01.330Z,9.60
2018-03-25T11:59:29.756Z,9.50
2018-03-25T12:01:57.296Z,9.60
2018-03-25T12:04:24.819Z,9.70
2018-03-25T12:06:53.103Z,9.70
2018-03-25T12:09:21.432Z,9.70
2018-03-25T12:11:48.928Z,9.60
2018-03-25T12:14:17.219Z,9.90
2018-03-25T12:16:44.723Z,9.80
2018-03-25T12:19:12.276Z,9.90
2018-03-25T12:21:39.795Z,9.90
2018-03-25T12:24:07.294Z,9.90
2018-03-25T12:26:34.844Z,10.00
2018-03-25T12:29:02.375Z,10.10
2018-03-25T12:31:29.915Z,10.10
2018-03-25T12:33:58.216Z,10.20
2018-03-25T12:36:25.747Z,10.10
2018-03-25T12:38:53.272Z,10.40
2018-03-25T12:41:21.729Z,10.30
2018-03-25T12:43:49.255Z,10.30
2018-03-25T12:46:16.783Z,10.20
2018-03-25T12:48:44.310Z,10.20
2018-03-25T12:51:11.831Z,10.50
2018-03-25T12:53:40.137Z,10.90
2018-03-25T12:56:08.180Z,10.80
2018-03-25T12:58:36.486Z,10.60
2018-03-25T13:01:04.045Z,10.50
2018-03-25T13:03:31.600Z,10.50
2018-03-25T13:05:59.108Z,10.40
2018-03-25T13:08:26.627Z,10.20
2018-03-25T13:10:54.164Z,10.20
2018-03-25T13:13:21.708Z,10.30
2018-03-25T13:15:49.324Z,10.40
2018-03-25T13:18:17.554Z,10.30
2018-03-25T13:20:45.844Z,10.30
2018-03-25T13:23:14.125Z,10.30
2018-03-25T13:25:41.891Z,10.20
2018-03-25T13:28:10.202Z,10.60
2018-03-25T13:30:37.770Z,10.50
2018-03-25T13:33:05.308Z,10.60
2018-03-25T13:35:32.986Z,10.50
2018-03-25T13:38:00.527Z,10.40
2018-03-25T13:40:28.100Z,10.30
2018-03-25T13:42:55.671Z,10.60
2018-03-25T13:45:23.407Z,10.60
2018-03-25T13:47:52.802Z,10.60
2018-03-25T13:50:21.105Z,10.50
2018-03-25T13:52:48.616Z,10.40
2018-03-25T13:55:16.145Z,10.40
2018-03-25T13:57:43.688Z,10.40
2018-03-25T14:00:11.274Z,10.30
2018-03-25T14:02:38.816Z,10.30
2018-03-25T14:05:06.330Z,10.30
2018-03-25T14:07:34.623Z,10.40
2018-03-25T14:10:02.990Z,10.30
2018-03-25T14:12:31.287Z,10.50
2018-03-25T14:14:58.830Z,10.40
2018-03-25T14:17:27.150Z,10.80
2018-03-25T14:19:54.711Z,10.70
2018-03-25T14:22:22.251Z,10.80
2018-03-25T14:24:49.772Z,10.90
2018-03-25T14:27:18.103Z,10.80
2018-03-25T14:29:45.632Z,10.80
2018-03-25T14:32:13.908Z,10.50
2018-03-25T14:34:42.206Z,10.40
2018-03-25T14:37:09.721Z,10.30
2018-03-25T14:39:37.784Z,10.40
2018-03-25T14:42:05.306Z,10.40
2018-03-25T14:44:32.872Z,10.50
2018-03-25T14:47:00.395Z,10.50
2018-03-25T14:49:28.673Z,10.70
2018-03-25T14:51:57.003Z,10.70
2018-03-25T14:54:25.285Z,10.60
2018-03-25T14:56:52.847Z,10.70
2018-03-25T14:59:20.372Z,10.70
2018-03-25T15:01:47.906Z,10.70
2018-03-25T15:04:16.223Z,10.80
2018-03-25T15:06:43.773Z,10.70
2018-03-25T15:09:11.344Z,10.90
2018-03-25T15:11:38.871Z,11.00
2018-03-25T15:14:07.188Z,10.90
2018-03-25T15:16:35.509Z,10.90
2018-03-25T15:19:03.041Z,10.90
2018-03-25T15:21:30.555Z,10.90
2018-03-25T15:23:58.846Z,11.00
2018-03-25T15:26:26.361Z,10.90
2018-03-25T15:28:53.888Z,11.00
2018-03-25T15:31:21.423Z,10.90
2018-03-25T15:33:48.988Z,10.80
2018-03-25T15:36:17.307Z,10.60
2018-03-25T15:38:44.808Z,10.50
2018-03-25T15:41:12.407Z,10.70
2018-03-25T15:43:39.903Z,10.70
2018-03-25T15:46:07.457Z,10.70
2018-03-25T15:48:34.977Z,10.70
2018-03-25T15:51:02.556Z,10.70
2018-03-25T15:53:30.466Z,10.60
2018-03-25T15:55:58.019Z,10.40
2018-03-25T15:58:25.535Z,10.40
2018-03-25T16:00:53.263Z,10.40
2018-03-25T16:03:21.560Z,10.40
2018-03-25T16:05:49.114Z,10.30
2018-03-25T16:08:16.689Z,10.20
2018-03-25T16:10:44.207Z,10.10
2018-03-25T16:13:12.489Z,10.00
2018-03-25T16:15:40.771Z,10.00
2018-03-25T16:18:08.285Z,9.90
2018-03-25T16:20:35.811Z,9.90
2018-03-25T16:23:03.331Z,9.90
2018-03-25T16:25:30.896Z,9.90
2018-03-25T16:27:58.406Z,9.80
2018-03-25T16:30:27.634Z,9.70
2018-03-25T16:32:55.160Z,9.60
2018-03-25T16:35:22.682Z,9.60
2018-03-25T16:37:50.970Z,9.50
2018-03-25T16:40:19.247Z,9.50
2018-03-25T16:42:47.536Z,9.40
2018-03-25T16:45:15.044Z,9.30
2018-03-25T16:47:43.345Z,9.30
2018-03-25T16:50:11.627Z,9.30
2018-03-25T16:52:39.920Z,9.20
2018-03-25T16:55:07.559Z,9.20
2018-03-25T16:57:35.036Z,9.10
2018-03-25T17:00:03.307Z,9.00
2018-03-25T17:02:31.592Z,8.90
2018-03-25T17:04:59.876Z,8.90
2018-03-25T17:07:28.144Z,8.80
2018-03-25T17:09:56.436Z,8.80
2018-03-25T17:12:23.936Z,8.70
2018-03-25T17:14:51.495Z,8.80
2018-03-25T17:17:18.996Z,8.70
2018-03-25T17:19:47.319Z,8.50
2018-03-25T17:22:14.816Z,8.40
2018-03-25T17:24:42.336Z,8.40
2018-03-25T17:27:10.695Z,8.30
2018-03-25T17:29:38.211Z,8.20
2018-03-25T17:32:05.833Z,8.30
2018-03-25T17:34:33.327Z,8.20
2018-03-25T17:37:00.840Z,8.10
2018-03-25T17:39:28.357Z,8.00
2018-03-25T17:41:55.879Z,7.90
2018-03-25T17:44:23.389Z,7.90
2018-03-25T17:46:50.942Z,7.80
2018-03-25T17:49:18.422Z,7.80
2018-03-25T17:51:46.703Z,7.80
2018-03-25T17:54:14.217Z,7.70
2018-03-25T17:56:41.709Z,7.80
2018-03-25T17:59:09.987Z,7.60
2018-03-25T18:01:38.839Z,7.60
2018-03-25T18:04:06.414Z,7.40
2018-03-25T18:06:33.927Z,7.50
2018-03-25T18:09:01.435Z,7.50
2018-03-25T18:11:28.951Z,7.40
2018-03-25T18:13:56.493Z,7.40
2018-03-25T18:16:23.964Z,7.40
2018-03-25T18:18:51.467Z,7.40
2018-03-25T18:21:18.997Z,7.40
2018-03-25T18:23:46.524Z,7.40
2018-03-25T18:26:14.094Z,7.30
2018-03-25T18:28:41.671Z,7.20
2018-03-25T18:31:09.564Z,7.20
2018-03-25T18:33:37.176Z,7.20
2018-03-25T18:36:04.680Z,7.20
2018-03-25T18:38:32.257Z,7.20
2018-03-25T18:40:59.789Z,7.20
2018-03-25T18:43:27.311Z,7.10
2018-03-25T18:45:55.576Z,7.10
2018-03-25T18:48:23.124Z,7.00
2018-03-25T18:50:50.706Z,7.10
2018-03-25T18:53:18.978Z,7.10
2018-03-25T18:55:47.275Z,7.00
2018-03-25T18:58:14.827Z,6.90
2018-03-25T19:00:43.138Z,6.90
2018-03-25T19:03:10.701Z,6.80
2018-03-25T19:05:38.211Z,6.90
2018-03-25T19:08:05.742Z,6.90
2018-03-25T19:10:33.290Z,6.80
2018-03-25T19:13:00.829Z,6.80
2018-03-25T19:15:29.050Z,6.80
2018-03-25T19:17:56.580Z,6.70
2018-03-25T19:20:24.090Z,6.70
2018-03-25T19:22:53.125Z,6.70
2018-03-25T19:25:20.613Z,6.60
2018-03-25T19:27:48.133Z,6.60
2018-03-25T19:30:15.637Z,6.50
2018-03-25T19:32:43.159Z,6.50
2018-03-25T19:35:10.674Z,6.50
2018-03-25T19:37:38.951Z,6.50
2018-03-25T19:40:06.485Z,6.40
2018-03-25T19:42:33.987Z,6.50
2018-03-25T19:45:02.299Z,6.70
2018-03-25T19:47:29.798Z,6.60
2018-03-25T19:49:57.911Z,6.80
2018-03-25T19:52:25.429Z,6.90
2018-03-25T19:54:52.946Z,7.00
2018-03-25T19:57:20.487Z,7.00
2018-03-25T19:59:48.018Z,7.00
2018-03-25T20:02:15.528Z,7.00
2018-03-25T20:04:43.033Z,7.10
2018-03-25T20:07:10.568Z,7.00
2018-03-25T20:09:38.110Z,7.10
2018-03-25T20:12:06.351Z,7.10
2018-03-25T20:14:34.617Z,7.20
2018-03-25T20:17:02.156Z,7.10
2018-03-25T20:19:29.661Z,7.20
2018-03-25T20:21:57.167Z,7.20
2018-03-25T20:24:24.680Z,7.20
2018-03-25T20:26:52.195Z,7.10
2018-03-25T20:29:19.718Z,7.10
2018-03-25T20:31:47.246Z,7.10
2018-03-25T20:34:14.780Z,7.10
2018-03-25T20:36:42.272Z,7.00
2018-03-25T20:39:09.797Z,7.00
2018-03-25T20:41:37.312Z,7.00
2018-03-25T20:44:04.926Z,6.90
2018-03-25T20:46:32.449Z,7.00
2018-03-25T20:48:59.944Z,7.00
2018-03-25T20:51:27.494Z,7.00
2018-03-25T20:53:54.987Z,7.00
2018-03-25T20:56:23.296Z,7.00
2018-03-25T20:58:50.804Z,6.90
2018-03-25T21:01:18.347Z,7.00
2018-03-25T21:03:45.972Z,7.00
2018-03-25T21:06:13.476Z,6.90
2018-03-25T21:08:41.004Z,6.90
2018-03-25T21:11:08.501Z,6.90
2018-03-25T21:13:36.026Z,6.90
2018-03-25T21:16:03.520Z,6.90
2018-03-25T21:18:31.088Z,6.90
2018-03-25T21:20:58.577Z,6.90
2018-03-25T21:23:26.159Z,6.90
2018-03-25T21:25:53.672Z,6.80
2018-03-25T21:28:21.951Z,6.80
2018-03-25T21:30:50.230Z,6.70
2018-03-25T21:33:17.731Z,6.60
2018-03-25T21:35:45.264Z,6.70
2018-03-25T21:38:12.756Z,6.70
2018-03-25T21:40:40.267Z,6.70
2018-03-25T21:43:08.552Z,6.50
2018-03-25T21:45:36.855Z,6.50
2018-03-25T21:48:04.351Z,6.50
2018-03-25T21:50:31.878Z,6.50
2018-03-25T21:52:59.408Z,6.50
2018-03-25T21:55:26.919Z,6.50
2018-03-25T21:57:54.443Z,6.40
2018-03-25T22:00:21.938Z,6.30
2018-03-25T22:02:49.457Z,6.30
2018-03-25T22:05:16.958Z,6.20
2018-03-25T22:07:44.512Z,6.20
2018-03-25T22:10:12.021Z,6.10
2018-03-25T22:12:40.309Z,6.10
2018-03-25T22:15:07.823Z,6.00
2018-03-25T22:17:35.351Z,6.10
2018-03-25T22:20:02.884Z,6.00
2018-03-25T22:22:31.725Z,6.00
2018-03-25T22:25:00.052Z,5.90
2018-03-25T22:27:28.337Z,5.80
2018-03-25T22:29:55.869Z,5.70
2018-03-25T22:32:23.371Z,5.80
2018-03-25T22:34:50.903Z,5.80
2018-03-25T22:37:19.607Z,5.80
2018-03-25T22:39:47.124Z,5.60
2018-03-25T22:42:14.765Z,5.80
2018-03-25T22:44:42.271Z,5.70
2018-03-25T22:47:10.572Z,5.60
2018-03-25T22:49:38.096Z,5.50
2018-03-25T22:52:05.632Z,5.60
2018-03-25T22:54:33.133Z,5.70
2018-03-25T22:57:00.656Z,5.60
2018-03-25T22:59:28.916Z,5.60
2018-03-25T23:01:56.426Z,5.70
2018-03-25T23:04:24.695Z,5.60
2018-03-25T23:06:52.179Z,5.50
2018-03-25T23:09:19.727Z,5.50
2018-03-25T23:11:48.004Z,5.40
2018-03-25T23:14:16.289Z,5.40
2018-03-25T23:16:43.779Z,5.30
2018-03-25T23:19:11.435Z,5.30
2018-03-25T23:21:38.949Z,5.30
2018-03-25T23:24:07.233Z,5.30
2018-03-25T23:26:35.519Z,5.40
2018-03-25T23:29:03.811Z,5.40
2018-03-25T23:31:31.379Z,5.30
2018-03-25T23:33:58.883Z,5.40
2018-03-25T23:36:26.443Z,5.40
2018-03-25T23:38:53.967Z,5.30
2018-03-25T23:41:21.469Z,5.30
2018-03-25T23:43:48.979Z,5.30
2018-03-25T23:46:16.492Z,5.30
2018-03-25T23:48:44.032Z,5.30
2018-03-25T23:51:11.542Z,5.20
2018-03-25T23:53:39.079Z,5.20
2018-03-25T23:56:07.382Z,5.10
2018-03-25T23:58:34.912Z,5.00
